sensor_id;sensor_type;location;lat;lon;timestamp;P1;durP1;ratioP1;P2;durP2;ratioP2
18290;SDS011;9271;48.590;8.866;2023-12-20T00:01:07;1.20;;;1.10;;
18290;SDS011;9271;48.590;8.866;2023-12-20T00:03:33;1.80;;;1.40;;
18290;SDS011;9271;48.590;8.866;2023-12-20T00:06:00;1.97;;;1.37;;
18290;SDS011;9271;48.590;8.866;2023-12-20T00:08:27;1.40;;;1.30;;
18290;SDS011;9271;48.590;8.866;2023-12-20T00:10:53;1.00;;;1.00;;
18290;SDS011;9271;48.590;8.866;2023-12-20T00:13:21;0.80;;;0.80;;
18290;SDS011;9271;48.590;8.866;2023-12-20T00:15:48;1.23;;;1.13;;
18290;SDS011;9271;48.590;8.866;2023-12-20T00:18:14;0.90;;;0.90;;
18290;SDS011;9271;48.590;8.866;2023-12-20T00:20:41;0.80;;;0.80;;
18290;SDS011;9271;48.590;8.866;2023-12-20T00:23:08;1.10;;;1.03;;
18290;SDS011;9271;48.590;8.866;2023-12-20T00:25:34;2.03;;;1.40;;
18290;SDS011;9271;48.590;8.866;2023-12-20T00:28:01;0.93;;;0.93;;
18290;SDS011;9271;48.590;8.866;2023-12-20T00:30:30;0.80;;;0.80;;
18290;SDS011;9271;48.590;8.866;2023-12-20T00:32:56;1.00;;;0.97;;
18290;SDS011;9271;48.590;8.866;2023-12-20T00:35:23;1.00;;;1.00;;
18290;SDS011;9271;48.590;8.866;2023-12-20T00:37:50;1.27;;;1.00;;
18290;SDS011;9271;48.590;8.866;2023-12-20T00:40:16;1.03;;;1.03;;
18290;SDS011;9271;48.590;8.866;2023-12-20T00:42:43;1.10;;;1.00;;
18290;SDS011;9271;48.590;8.866;2023-12-20T00:45:11;0.90;;;0.90;;
18290;SDS011;9271;48.590;8.866;2023-12-20T00:47:40;1.00;;;1.00;;
18290;SDS011;9271;48.590;8.866;2023-12-20T00:50:07;1.27;;;0.67;;
18290;SDS011;9271;48.590;8.866;2023-12-20T00:52:35;0.70;;;0.70;;
18290;SDS011;9271;48.590;8.866;2023-12-20T00:55:01;0.60;;;0.60;;
18290;SDS011;9271;48.590;8.866;2023-12-20T00:57:28;0.80;;;0.80;;
18290;SDS011;9271;48.590;8.866;2023-12-20T00:59:56;0.70;;;0.70;;
18290;SDS011;9271;48.590;8.866;2023-12-20T01:02:22;0.67;;;0.67;;
18290;SDS011;9271;48.590;8.866;2023-12-20T01:04:50;0.73;;;0.73;;
18290;SDS011;9271;48.590;8.866;2023-12-20T01:07:17;1.57;;;0.70;;
18290;SDS011;9271;48.590;8.866;2023-12-20T01:09:44;0.90;;;0.90;;
18290;SDS011;9271;48.590;8.866;2023-12-20T01:12:10;1.50;;;1.00;;
18290;SDS011;9271;48.590;8.866;2023-12-20T01:14:37;1.10;;;0.70;;
18290;SDS011;9271;48.590;8.866;2023-12-20T01:17:04;0.93;;;0.93;;
18290;SDS011;9271;48.590;8.866;2023-12-20T01:19:31;0.80;;;0.73;;
18290;SDS011;9271;48.590;8.866;2023-12-20T01:21:59;0.70;;;0.70;;
18290;SDS011;9271;48.590;8.866;2023-12-20T01:24:25;1.43;;;1.00;;
18290;SDS011;9271;48.590;8.866;2023-12-20T01:26:52;1.30;;;1.20;;
18290;SDS011;9271;48.590;8.866;2023-12-20T01:29:19;1.40;;;1.30;;
18290;SDS011;9271;48.590;8.866;2023-12-20T01:31:45;1.40;;;1.30;;
18290;SDS011;9271;48.590;8.866;2023-12-20T01:34:12;1.43;;;1.33;;
18290;SDS011;9271;48.590;8.866;2023-12-20T01:36:39;1.27;;;1.17;;
18290;SDS011;9271;48.590;8.866;2023-12-20T01:39:07;1.33;;;1.10;;
18290;SDS011;9271;48.590;8.866;2023-12-20T01:41:33;1.00;;;0.97;;
18290;SDS011;9271;48.590;8.866;2023-12-20T01:44:00;1.00;;;1.00;;
18290;SDS011;9271;48.590;8.866;2023-12-20T01:46:27;0.87;;;0.87;;
18290;SDS011;9271;48.590;8.866;2023-12-20T01:48:53;0.80;;;0.80;;
18290;SDS011;9271;48.590;8.866;2023-12-20T01:51:20;0.90;;;0.90;;
18290;SDS011;9271;48.590;8.866;2023-12-20T01:53:47;1.07;;;1.03;;
18290;SDS011;9271;48.590;8.866;2023-12-20T01:56:16;0.70;;;0.70;;
18290;SDS011;9271;48.590;8.866;2023-12-20T01:58:43;0.90;;;0.90;;
18290;SDS011;9271;48.590;8.866;2023-12-20T02:01:12;0.97;;;0.90;;
18290;SDS011;9271;48.590;8.866;2023-12-20T02:03:39;0.50;;;0.50;;
18290;SDS011;9271;48.590;8.866;2023-12-20T02:06:06;0.90;;;0.90;;
18290;SDS011;9271;48.590;8.866;2023-12-20T02:08:34;0.90;;;0.90;;
18290;SDS011;9271;48.590;8.866;2023-12-20T02:11:00;0.60;;;0.60;;
18290;SDS011;9271;48.590;8.866;2023-12-20T02:13:29;0.53;;;0.53;;
18290;SDS011;9271;48.590;8.866;2023-12-20T02:15:56;0.50;;;0.50;;
18290;SDS011;9271;48.590;8.866;2023-12-20T02:18:23;0.30;;;0.30;;
18290;SDS011;9271;48.590;8.866;2023-12-20T02:20:50;0.30;;;0.30;;
18290;SDS011;9271;48.590;8.866;2023-12-20T02:23:18;0.20;;;0.20;;
18290;SDS011;9271;48.590;8.866;2023-12-20T02:25:44;0.13;;;0.13;;
18290;SDS011;9271;48.590;8.866;2023-12-20T02:28:11;0.37;;;0.37;;
18290;SDS011;9271;48.590;8.866;2023-12-20T02:30:38;0.40;;;0.40;;
18290;SDS011;9271;48.590;8.866;2023-12-20T02:33:05;0.40;;;0.40;;
18290;SDS011;9271;48.590;8.866;2023-12-20T02:35:37;0.20;;;0.20;;
18290;SDS011;9271;48.590;8.866;2023-12-20T02:38:04;0.77;;;0.17;;
18290;SDS011;9271;48.590;8.866;2023-12-20T02:40:32;0.20;;;0.20;;
18290;SDS011;9271;48.590;8.866;2023-12-20T02:42:58;0.10;;;0.10;;
18290;SDS011;9271;48.590;8.866;2023-12-20T02:45:25;0.10;;;0.10;;
18290;SDS011;9271;48.590;8.866;2023-12-20T02:47:52;0.10;;;0.10;;
18290;SDS011;9271;48.590;8.866;2023-12-20T02:50:19;0.10;;;0.10;;
18290;SDS011;9271;48.590;8.866;2023-12-20T02:52:46;0.10;;;0.10;;
18290;SDS011;9271;48.590;8.866;2023-12-20T02:55:12;0.10;;;0.10;;
18290;SDS011;9271;48.590;8.866;2023-12-20T02:57:40;0.10;;;0.10;;
18290;SDS011;9271;48.590;8.866;2023-12-20T03:00:08;0.10;;;0.10;;
18290;SDS011;9271;48.590;8.866;2023-12-20T03:02:35;0.10;;;0.10;;
18290;SDS011;9271;48.590;8.866;2023-12-20T03:05:02;0.27;;;0.10;;
18290;SDS011;9271;48.590;8.866;2023-12-20T03:07:29;0.10;;;0.10;;
18290;SDS011;9271;48.590;8.866;2023-12-20T03:09:56;0.30;;;0.20;;
18290;SDS011;9271;48.590;8.866;2023-12-20T03:12:22;0.00;;;0.00;;
18290;SDS011;9271;48.590;8.866;2023-12-20T03:14:50;0.10;;;0.10;;
18290;SDS011;9271;48.590;8.866;2023-12-20T03:17:17;0.10;;;0.10;;
18290;SDS011;9271;48.590;8.866;2023-12-20T03:19:44;0.07;;;0.07;;
18290;SDS011;9271;48.590;8.866;2023-12-20T03:22:11;0.00;;;0.00;;
18290;SDS011;9271;48.590;8.866;2023-12-20T03:24:37;0.00;;;0.00;;
18290;SDS011;9271;48.590;8.866;2023-12-20T03:27:04;0.07;;;0.07;;
18290;SDS011;9271;48.590;8.866;2023-12-20T03:29:31;0.10;;;0.10;;
18290;SDS011;9271;48.590;8.866;2023-12-20T03:31:59;0.17;;;0.13;;
18290;SDS011;9271;48.590;8.866;2023-12-20T03:34:26;0.70;;;0.10;;
18290;SDS011;9271;48.590;8.866;2023-12-20T03:36:54;0.30;;;0.13;;
18290;SDS011;9271;48.590;8.866;2023-12-20T03:39:20;0.00;;;0.00;;
18290;SDS011;9271;48.590;8.866;2023-12-20T03:41:47;0.00;;;0.00;;
18290;SDS011;9271;48.590;8.866;2023-12-20T03:44:14;0.00;;;0.00;;
18290;SDS011;9271;48.590;8.866;2023-12-20T03:46:40;0.00;;;0.00;;
18290;SDS011;9271;48.590;8.866;2023-12-20T03:49:08;0.00;;;0.00;;
18290;SDS011;9271;48.590;8.866;2023-12-20T03:51:35;0.20;;;0.10;;
18290;SDS011;9271;48.590;8.866;2023-12-20T03:54:02;0.10;;;0.10;;
18290;SDS011;9271;48.590;8.866;2023-12-20T03:56:28;0.00;;;0.00;;
18290;SDS011;9271;48.590;8.866;2023-12-20T03:58:55;0.10;;;0.10;;
18290;SDS011;9271;48.590;8.866;2023-12-20T04:01:22;0.00;;;0.00;;
18290;SDS011;9271;48.590;8.866;2023-12-20T04:03:48;0.10;;;0.10;;
18290;SDS011;9271;48.590;8.866;2023-12-20T04:06:17;0.10;;;0.10;;
18290;SDS011;9271;48.590;8.866;2023-12-20T04:08:44;0.00;;;0.00;;
18290;SDS011;9271;48.590;8.866;2023-12-20T04:11:11;0.07;;;0.00;;
18290;SDS011;9271;48.590;8.866;2023-12-20T04:13:38;0.30;;;0.13;;
18290;SDS011;9271;48.590;8.866;2023-12-20T04:16:04;0.30;;;0.30;;
18290;SDS011;9271;48.590;8.866;2023-12-20T04:18:31;0.03;;;0.03;;
18290;SDS011;9271;48.590;8.866;2023-12-20T04:20:58;0.20;;;0.03;;
18290;SDS011;9271;48.590;8.866;2023-12-20T04:23:26;0.17;;;0.17;;
18290;SDS011;9271;48.590;8.866;2023-12-20T04:25:53;0.10;;;0.10;;
18290;SDS011;9271;48.590;8.866;2023-12-20T04:28:20;0.03;;;0.03;;
18290;SDS011;9271;48.590;8.866;2023-12-20T04:30:47;0.10;;;0.10;;
18290;SDS011;9271;48.590;8.866;2023-12-20T04:33:13;0.10;;;0.10;;
18290;SDS011;9271;48.590;8.866;2023-12-20T04:35:40;0.20;;;0.20;;
18290;SDS011;9271;48.590;8.866;2023-12-20T04:38:07;0.50;;;0.50;;
18290;SDS011;9271;48.590;8.866;2023-12-20T04:40:36;0.30;;;0.30;;
18290;SDS011;9271;48.590;8.866;2023-12-20T04:43:02;0.20;;;0.20;;
18290;SDS011;9271;48.590;8.866;2023-12-20T04:45:29;0.10;;;0.10;;
18290;SDS011;9271;48.590;8.866;2023-12-20T04:47:56;0.10;;;0.03;;
18290;SDS011;9271;48.590;8.866;2023-12-20T04:50:23;0.33;;;0.20;;
18290;SDS011;9271;48.590;8.866;2023-12-20T04:52:49;0.10;;;0.10;;
18290;SDS011;9271;48.590;8.866;2023-12-20T04:55:17;0.13;;;0.13;;
18290;SDS011;9271;48.590;8.866;2023-12-20T04:57:45;0.37;;;0.13;;
18290;SDS011;9271;48.590;8.866;2023-12-20T05:00:12;0.10;;;0.10;;
18290;SDS011;9271;48.590;8.866;2023-12-20T05:02:40;0.10;;;0.10;;
18290;SDS011;9271;48.590;8.866;2023-12-20T05:05:07;0.10;;;0.10;;
18290;SDS011;9271;48.590;8.866;2023-12-20T05:07:34;0.13;;;0.13;;
18290;SDS011;9271;48.590;8.866;2023-12-20T05:10:01;0.30;;;0.30;;
18290;SDS011;9271;48.590;8.866;2023-12-20T05:12:29;0.40;;;0.40;;
18290;SDS011;9271;48.590;8.866;2023-12-20T05:14:57;0.10;;;0.10;;
18290;SDS011;9271;48.590;8.866;2023-12-20T05:17:24;0.10;;;0.10;;
18290;SDS011;9271;48.590;8.866;2023-12-20T05:19:51;0.30;;;0.30;;
18290;SDS011;9271;48.590;8.866;2023-12-20T05:22:18;0.50;;;0.50;;
18290;SDS011;9271;48.590;8.866;2023-12-20T05:24:45;0.20;;;0.20;;
18290;SDS011;9271;48.590;8.866;2023-12-20T05:27:12;0.50;;;0.50;;
18290;SDS011;9271;48.590;8.866;2023-12-20T05:29:39;0.47;;;0.47;;
18290;SDS011;9271;48.590;8.866;2023-12-20T05:32:07;1.13;;;0.47;;
18290;SDS011;9271;48.590;8.866;2023-12-20T05:34:33;0.50;;;0.50;;
18290;SDS011;9271;48.590;8.866;2023-12-20T05:37:00;0.50;;;0.50;;
18290;SDS011;9271;48.590;8.866;2023-12-20T05:39:27;0.30;;;0.30;;
18290;SDS011;9271;48.590;8.866;2023-12-20T05:41:55;0.40;;;0.40;;
18290;SDS011;9271;48.590;8.866;2023-12-20T05:44:22;0.50;;;0.50;;
18290;SDS011;9271;48.590;8.866;2023-12-20T05:46:49;0.43;;;0.43;;
18290;SDS011;9271;48.590;8.866;2023-12-20T05:49:17;0.40;;;0.40;;
18290;SDS011;9271;48.590;8.866;2023-12-20T05:51:44;0.33;;;0.33;;
18290;SDS011;9271;48.590;8.866;2023-12-20T05:54:10;0.40;;;0.40;;
18290;SDS011;9271;48.590;8.866;2023-12-20T05:56:37;0.40;;;0.40;;
18290;SDS011;9271;48.590;8.866;2023-12-20T05:59:04;0.40;;;0.40;;
18290;SDS011;9271;48.590;8.866;2023-12-20T06:01:31;0.47;;;0.47;;
18290;SDS011;9271;48.590;8.866;2023-12-20T06:03:58;0.50;;;0.50;;
18290;SDS011;9271;48.590;8.866;2023-12-20T06:06:26;0.60;;;0.60;;
18290;SDS011;9271;48.590;8.866;2023-12-20T06:08:53;0.50;;;0.50;;
18290;SDS011;9271;48.590;8.866;2023-12-20T06:11:19;0.43;;;0.43;;
18290;SDS011;9271;48.590;8.866;2023-12-20T06:13:46;0.60;;;0.60;;
18290;SDS011;9271;48.590;8.866;2023-12-20T06:16:14;0.40;;;0.40;;
18290;SDS011;9271;48.590;8.866;2023-12-20T06:18:40;1.90;;;0.30;;
18290;SDS011;9271;48.590;8.866;2023-12-20T06:21:07;0.53;;;0.40;;
18290;SDS011;9271;48.590;8.866;2023-12-20T06:23:39;0.60;;;0.40;;
18290;SDS011;9271;48.590;8.866;2023-12-20T06:26:06;0.40;;;0.40;;
18290;SDS011;9271;48.590;8.866;2023-12-20T06:28:32;0.67;;;0.67;;
18290;SDS011;9271;48.590;8.866;2023-12-20T06:30:59;0.87;;;0.80;;
18290;SDS011;9271;48.590;8.866;2023-12-20T06:33:26;1.40;;;1.30;;
18290;SDS011;9271;48.590;8.866;2023-12-20T06:35:54;1.07;;;0.97;;
18290;SDS011;9271;48.590;8.866;2023-12-20T06:38:21;0.60;;;0.60;;
18290;SDS011;9271;48.590;8.866;2023-12-20T06:40:49;0.80;;;0.80;;
18290;SDS011;9271;48.590;8.866;2023-12-20T06:43:16;1.10;;;1.00;;
18290;SDS011;9271;48.590;8.866;2023-12-20T06:45:42;0.90;;;0.90;;
18290;SDS011;9271;48.590;8.866;2023-12-20T06:48:09;0.80;;;0.80;;
18290;SDS011;9271;48.590;8.866;2023-12-20T06:50:37;0.90;;;0.90;;
18290;SDS011;9271;48.590;8.866;2023-12-20T06:53:05;0.90;;;0.90;;
18290;SDS011;9271;48.590;8.866;2023-12-20T06:55:32;1.23;;;1.17;;
18290;SDS011;9271;48.590;8.866;2023-12-20T06:58:00;0.80;;;0.80;;
18290;SDS011;9271;48.590;8.866;2023-12-20T07:00:27;0.50;;;0.50;;
18290;SDS011;9271;48.590;8.866;2023-12-20T07:02:54;0.40;;;0.40;;
18290;SDS011;9271;48.590;8.866;2023-12-20T07:05:21;0.40;;;0.40;;
18290;SDS011;9271;48.590;8.866;2023-12-20T07:07:48;0.30;;;0.30;;
18290;SDS011;9271;48.590;8.866;2023-12-20T07:10:15;0.60;;;0.60;;
18290;SDS011;9271;48.590;8.866;2023-12-20T07:12:42;1.33;;;0.80;;
18290;SDS011;9271;48.590;8.866;2023-12-20T07:15:10;0.90;;;0.90;;
18290;SDS011;9271;48.590;8.866;2023-12-20T07:17:37;2.07;;;1.87;;
18290;SDS011;9271;48.590;8.866;2023-12-20T07:20:05;2.73;;;2.53;;
18290;SDS011;9271;48.590;8.866;2023-12-20T07:22:35;1.13;;;1.10;;
18290;SDS011;9271;48.590;8.866;2023-12-20T07:25:03;4.10;;;3.70;;
18290;SDS011;9271;48.590;8.866;2023-12-20T07:27:30;1.30;;;1.20;;
18290;SDS011;9271;48.590;8.866;2023-12-20T07:29:57;1.00;;;1.00;;
18290;SDS011;9271;48.590;8.866;2023-12-20T07:32:25;1.00;;;0.83;;
18290;SDS011;9271;48.590;8.866;2023-12-20T07:34:52;0.80;;;0.80;;
18290;SDS011;9271;48.590;8.866;2023-12-20T07:37:19;0.80;;;0.80;;
18290;SDS011;9271;48.590;8.866;2023-12-20T07:39:46;0.60;;;0.60;;
18290;SDS011;9271;48.590;8.866;2023-12-20T07:42:13;0.50;;;0.50;;
18290;SDS011;9271;48.590;8.866;2023-12-20T07:44:40;0.70;;;0.70;;
18290;SDS011;9271;48.590;8.866;2023-12-20T07:47:07;0.53;;;0.50;;
18290;SDS011;9271;48.590;8.866;2023-12-20T07:49:35;0.63;;;0.63;;
18290;SDS011;9271;48.590;8.866;2023-12-20T07:52:02;0.70;;;0.70;;
18290;SDS011;9271;48.590;8.866;2023-12-20T07:54:30;0.50;;;0.50;;
18290;SDS011;9271;48.590;8.866;2023-12-20T07:56:57;0.60;;;0.60;;
18290;SDS011;9271;48.590;8.866;2023-12-20T07:59:24;0.40;;;0.40;;
18290;SDS011;9271;48.590;8.866;2023-12-20T08:01:51;0.70;;;0.70;;
18290;SDS011;9271;48.590;8.866;2023-12-20T08:04:18;0.70;;;0.70;;
18290;SDS011;9271;48.590;8.866;2023-12-20T08:06:46;0.70;;;0.70;;
18290;SDS011;9271;48.590;8.866;2023-12-20T08:09:13;0.70;;;0.70;;
18290;SDS011;9271;48.590;8.866;2023-12-20T08:11:44;0.70;;;0.70;;
18290;SDS011;9271;48.590;8.866;2023-12-20T08:14:11;0.70;;;0.70;;
18290;SDS011;9271;48.590;8.866;2023-12-20T08:16:37;0.70;;;0.70;;
18290;SDS011;9271;48.590;8.866;2023-12-20T08:19:04;0.83;;;0.83;;
18290;SDS011;9271;48.590;8.866;2023-12-20T08:21:31;1.90;;;1.13;;
18290;SDS011;9271;48.590;8.866;2023-12-20T08:23:59;1.20;;;1.20;;
18290;SDS011;9271;48.590;8.866;2023-12-20T08:26:26;1.40;;;1.30;;
18290;SDS011;9271;48.590;8.866;2023-12-20T08:28:53;1.23;;;1.23;;
18290;SDS011;9271;48.590;8.866;2023-12-20T08:31:19;1.10;;;1.00;;
18290;SDS011;9271;48.590;8.866;2023-12-20T08:33:47;0.90;;;0.90;;
18290;SDS011;9271;48.590;8.866;2023-12-20T08:36:14;0.83;;;0.83;;
18290;SDS011;9271;48.590;8.866;2023-12-20T08:38:42;1.07;;;1.00;;
18290;SDS011;9271;48.590;8.866;2023-12-20T08:41:10;1.30;;;1.20;;
18290;SDS011;9271;48.590;8.866;2023-12-20T08:43:37;1.50;;;1.40;;
18290;SDS011;9271;48.590;8.866;2023-12-20T08:46:05;1.30;;;1.20;;
18290;SDS011;9271;48.590;8.866;2023-12-20T08:48:32;1.60;;;1.50;;
18290;SDS011;9271;48.590;8.866;2023-12-20T08:50:58;2.00;;;1.50;;
18290;SDS011;9271;48.590;8.866;2023-12-20T08:53:25;1.50;;;1.40;;
18290;SDS011;9271;48.590;8.866;2023-12-20T08:55:51;1.20;;;1.17;;
18290;SDS011;9271;48.590;8.866;2023-12-20T08:58:19;1.10;;;1.00;;
18290;SDS011;9271;48.590;8.866;2023-12-20T09:00:46;2.00;;;1.20;;
18290;SDS011;9271;48.590;8.866;2023-12-20T09:03:13;1.40;;;1.00;;
18290;SDS011;9271;48.590;8.866;2023-12-20T09:05:39;1.47;;;0.90;;
18290;SDS011;9271;48.590;8.866;2023-12-20T09:08:06;1.00;;;0.90;;
18290;SDS011;9271;48.590;8.866;2023-12-20T09:10:35;1.07;;;0.90;;
18290;SDS011;9271;48.590;8.866;2023-12-20T09:13:02;2.03;;;1.20;;
18290;SDS011;9271;48.590;8.866;2023-12-20T09:15:30;1.73;;;1.10;;
18290;SDS011;9271;48.590;8.866;2023-12-20T09:17:59;1.27;;;1.10;;
18290;SDS011;9271;48.590;8.866;2023-12-20T09:20:25;1.37;;;1.13;;
18290;SDS011;9271;48.590;8.866;2023-12-20T09:22:52;1.10;;;1.00;;
18290;SDS011;9271;48.590;8.866;2023-12-20T09:25:19;3.33;;;1.10;;
18290;SDS011;9271;48.590;8.866;2023-12-20T09:27:47;1.27;;;1.10;;
18290;SDS011;9271;48.590;8.866;2023-12-20T09:30:14;1.57;;;1.20;;
18290;SDS011;9271;48.590;8.866;2023-12-20T09:32:42;1.93;;;1.20;;
18290;SDS011;9271;48.590;8.866;2023-12-20T09:35:08;2.13;;;1.10;;
18290;SDS011;9271;48.590;8.866;2023-12-20T09:37:35;0.87;;;0.87;;
18290;SDS011;9271;48.590;8.866;2023-12-20T09:40:01;2.13;;;1.10;;
18290;SDS011;9271;48.590;8.866;2023-12-20T09:42:29;1.93;;;1.07;;
18290;SDS011;9271;48.590;8.866;2023-12-20T09:45:04;1.90;;;1.07;;
18290;SDS011;9271;48.590;8.866;2023-12-20T09:47:35;1.57;;;1.10;;
18290;SDS011;9271;48.590;8.866;2023-12-20T09:50:03;1.27;;;0.90;;
18290;SDS011;9271;48.590;8.866;2023-12-20T09:52:31;3.67;;;1.10;;
18290;SDS011;9271;48.590;8.866;2023-12-20T09:54:59;1.57;;;1.13;;
18290;SDS011;9271;48.590;8.866;2023-12-20T09:57:29;1.80;;;1.10;;
18290;SDS011;9271;48.590;8.866;2023-12-20T09:59:55;2.03;;;1.10;;
18290;SDS011;9271;48.590;8.866;2023-12-20T10:02:23;1.33;;;1.20;;
18290;SDS011;9271;48.590;8.866;2023-12-20T10:04:52;2.00;;;1.00;;
18290;SDS011;9271;48.590;8.866;2023-12-20T10:07:21;1.80;;;1.00;;
18290;SDS011;9271;48.590;8.866;2023-12-20T10:09:48;1.60;;;1.10;;
18290;SDS011;9271;48.590;8.866;2023-12-20T10:12:17;3.10;;;1.20;;
18290;SDS011;9271;48.590;8.866;2023-12-20T10:14:44;3.87;;;1.30;;
18290;SDS011;9271;48.590;8.866;2023-12-20T10:17:11;1.17;;;0.90;;
18290;SDS011;9271;48.590;8.866;2023-12-20T10:19:37;1.97;;;0.93;;
18290;SDS011;9271;48.590;8.866;2023-12-20T10:22:04;1.00;;;1.00;;
18290;SDS011;9271;48.590;8.866;2023-12-20T10:24:33;2.03;;;1.00;;
18290;SDS011;9271;48.590;8.866;2023-12-20T10:27:03;3.40;;;1.40;;
18290;SDS011;9271;48.590;8.866;2023-12-20T10:29:33;2.77;;;1.17;;
18290;SDS011;9271;48.590;8.866;2023-12-20T10:32:10;1.87;;;1.00;;
18290;SDS011;9271;48.590;8.866;2023-12-20T10:34:48;1.50;;;0.90;;
18290;SDS011;9271;48.590;8.866;2023-12-20T10:37:15;2.17;;;1.20;;
18290;SDS011;9271;48.590;8.866;2023-12-20T10:39:44;2.50;;;1.30;;
18290;SDS011;9271;48.590;8.866;2023-12-20T10:42:15;2.43;;;2.00;;
18290;SDS011;9271;48.590;8.866;2023-12-20T10:44:43;3.23;;;1.33;;
18290;SDS011;9271;48.590;8.866;2023-12-20T10:47:10;2.13;;;1.03;;
18290;SDS011;9271;48.590;8.866;2023-12-20T10:49:39;1.43;;;0.90;;
18290;SDS011;9271;48.590;8.866;2023-12-20T10:52:07;2.10;;;1.10;;
18290;SDS011;9271;48.590;8.866;2023-12-20T10:54:37;1.17;;;0.80;;
18290;SDS011;9271;48.590;8.866;2023-12-20T10:57:06;2.30;;;1.20;;
18290;SDS011;9271;48.590;8.866;2023-12-20T10:59:33;2.33;;;0.90;;
18290;SDS011;9271;48.590;8.866;2023-12-20T11:02:03;2.17;;;1.20;;
18290;SDS011;9271;48.590;8.866;2023-12-20T11:04:33;1.67;;;0.90;;
18290;SDS011;9271;48.590;8.866;2023-12-20T11:07:07;1.23;;;0.80;;
18290;SDS011;9271;48.590;8.866;2023-12-20T11:09:45;1.70;;;0.80;;
18290;SDS011;9271;48.590;8.866;2023-12-20T11:12:20;1.43;;;1.07;;
18290;SDS011;9271;48.590;8.866;2023-12-20T11:14:55;1.63;;;1.13;;
18290;SDS011;9271;48.590;8.866;2023-12-20T11:17:26;2.73;;;1.03;;
18290;SDS011;9271;48.590;8.866;2023-12-20T11:20:06;1.93;;;1.00;;
18290;SDS011;9271;48.590;8.866;2023-12-20T11:22:37;1.70;;;1.10;;
18290;SDS011;9271;48.590;8.866;2023-12-20T11:25:07;2.97;;;1.37;;
18290;SDS011;9271;48.590;8.866;2023-12-20T11:27:40;3.57;;;1.23;;
18290;SDS011;9271;48.590;8.866;2023-12-20T11:30:08;2.37;;;1.47;;
18290;SDS011;9271;48.590;8.866;2023-12-20T11:32:36;1.97;;;1.23;;
18290;SDS011;9271;48.590;8.866;2023-12-20T11:35:16;2.10;;;0.93;;
18290;SDS011;9271;48.590;8.866;2023-12-20T11:37:45;3.53;;;1.10;;
18290;SDS011;9271;48.590;8.866;2023-12-20T11:40:14;1.73;;;1.10;;
18290;SDS011;9271;48.590;8.866;2023-12-20T11:42:43;2.33;;;1.10;;
18290;SDS011;9271;48.590;8.866;2023-12-20T11:45:13;1.53;;;1.20;;
18290;SDS011;9271;48.590;8.866;2023-12-20T11:47:42;1.97;;;1.10;;
18290;SDS011;9271;48.590;8.866;2023-12-20T11:50:10;4.10;;;0.97;;
18290;SDS011;9271;48.590;8.866;2023-12-20T11:52:37;2.67;;;1.00;;
18290;SDS011;9271;48.590;8.866;2023-12-20T11:55:04;0.67;;;0.67;;
18290;SDS011;9271;48.590;8.866;2023-12-20T11:57:32;2.40;;;1.00;;
18290;SDS011;9271;48.590;8.866;2023-12-20T12:00:01;3.07;;;1.40;;
18290;SDS011;9271;48.590;8.866;2023-12-20T12:02:29;3.73;;;1.20;;
18290;SDS011;9271;48.590;8.866;2023-12-20T12:04:57;1.00;;;0.90;;
18290;SDS011;9271;48.590;8.866;2023-12-20T12:07:24;1.43;;;0.87;;
18290;SDS011;9271;48.590;8.866;2023-12-20T12:09:51;1.27;;;0.90;;
18290;SDS011;9271;48.590;8.866;2023-12-20T12:12:19;4.03;;;1.10;;
18290;SDS011;9271;48.590;8.866;2023-12-20T12:14:46;2.93;;;1.30;;
18290;SDS011;9271;48.590;8.866;2023-12-20T12:17:15;6.77;;;1.70;;
18290;SDS011;9271;48.590;8.866;2023-12-20T12:19:43;1.50;;;1.40;;
18290;SDS011;9271;48.590;8.866;2023-12-20T12:22:10;1.20;;;1.10;;
18290;SDS011;9271;48.590;8.866;2023-12-20T12:24:39;2.90;;;1.20;;
18290;SDS011;9271;48.590;8.866;2023-12-20T12:27:06;2.67;;;1.20;;
18290;SDS011;9271;48.590;8.866;2023-12-20T12:29:34;2.33;;;1.30;;
18290;SDS011;9271;48.590;8.866;2023-12-20T12:32:04;1.63;;;0.97;;
18290;SDS011;9271;48.590;8.866;2023-12-20T12:34:33;2.27;;;1.27;;
18290;SDS011;9271;48.590;8.866;2023-12-20T12:37:01;2.27;;;1.57;;
18290;SDS011;9271;48.590;8.866;2023-12-20T12:39:29;0.90;;;0.87;;
18290;SDS011;9271;48.590;8.866;2023-12-20T12:41:56;1.83;;;1.20;;
18290;SDS011;9271;48.590;8.866;2023-12-20T12:44:24;1.80;;;0.90;;
18290;SDS011;9271;48.590;8.866;2023-12-20T12:46:51;3.53;;;1.13;;
18290;SDS011;9271;48.590;8.866;2023-12-20T12:49:18;1.03;;;0.90;;
18290;SDS011;9271;48.590;8.866;2023-12-20T12:51:47;1.93;;;1.00;;
18290;SDS011;9271;48.590;8.866;2023-12-20T12:54:14;2.27;;;0.97;;
18290;SDS011;9271;48.590;8.866;2023-12-20T12:56:43;2.17;;;1.13;;
18290;SDS011;9271;48.590;8.866;2023-12-20T12:59:12;3.47;;;0.90;;
18290;SDS011;9271;48.590;8.866;2023-12-20T13:01:39;2.30;;;0.93;;
18290;SDS011;9271;48.590;8.866;2023-12-20T13:04:05;4.50;;;1.20;;
18290;SDS011;9271;48.590;8.866;2023-12-20T13:06:35;1.73;;;1.10;;
18290;SDS011;9271;48.590;8.866;2023-12-20T13:09:04;2.10;;;0.87;;
18290;SDS011;9271;48.590;8.866;2023-12-20T13:11:31;1.97;;;1.00;;
18290;SDS011;9271;48.590;8.866;2023-12-20T13:13:58;3.37;;;1.20;;
18290;SDS011;9271;48.590;8.866;2023-12-20T13:16:25;2.80;;;1.40;;
18290;SDS011;9271;48.590;8.866;2023-12-20T13:18:52;2.53;;;1.00;;
18290;SDS011;9271;48.590;8.866;2023-12-20T13:21:19;3.07;;;0.93;;
18290;SDS011;9271;48.590;8.866;2023-12-20T13:23:46;1.40;;;1.30;;
18290;SDS011;9271;48.590;8.866;2023-12-20T13:26:14;3.60;;;1.47;;
18290;SDS011;9271;48.590;8.866;2023-12-20T13:28:40;1.07;;;0.80;;
18290;SDS011;9271;48.590;8.866;2023-12-20T13:31:07;2.70;;;1.03;;
18290;SDS011;9271;48.590;8.866;2023-12-20T13:33:34;1.83;;;1.20;;
18290;SDS011;9271;48.590;8.866;2023-12-20T13:36:01;1.43;;;1.03;;
18290;SDS011;9271;48.590;8.866;2023-12-20T13:38:28;1.67;;;0.93;;
18290;SDS011;9271;48.590;8.866;2023-12-20T13:40:54;3.07;;;1.10;;
18290;SDS011;9271;48.590;8.866;2023-12-20T13:43:24;1.90;;;0.90;;
18290;SDS011;9271;48.590;8.866;2023-12-20T13:45:51;2.97;;;1.20;;
18290;SDS011;9271;48.590;8.866;2023-12-20T13:48:18;1.50;;;1.10;;
18290;SDS011;9271;48.590;8.866;2023-12-20T13:50:45;3.30;;;1.20;;
18290;SDS011;9271;48.590;8.866;2023-12-20T13:53:12;1.80;;;0.80;;
18290;SDS011;9271;48.590;8.866;2023-12-20T13:55:39;2.67;;;1.10;;
18290;SDS011;9271;48.590;8.866;2023-12-20T13:58:05;1.67;;;1.03;;
18290;SDS011;9271;48.590;8.866;2023-12-20T14:00:34;1.90;;;0.93;;
18290;SDS011;9271;48.590;8.866;2023-12-20T14:03:01;3.10;;;1.00;;
18290;SDS011;9271;48.590;8.866;2023-12-20T14:05:29;3.13;;;1.20;;
18290;SDS011;9271;48.590;8.866;2023-12-20T14:07:56;1.37;;;0.80;;
18290;SDS011;9271;48.590;8.866;2023-12-20T14:10:23;1.30;;;1.10;;
18290;SDS011;9271;48.590;8.866;2023-12-20T14:12:51;1.60;;;1.00;;
18290;SDS011;9271;48.590;8.866;2023-12-20T14:15:18;3.83;;;1.43;;
18290;SDS011;9271;48.590;8.866;2023-12-20T14:17:46;2.90;;;1.40;;
18290;SDS011;9271;48.590;8.866;2023-12-20T14:20:13;1.10;;;0.90;;
18290;SDS011;9271;48.590;8.866;2023-12-20T14:22:40;4.37;;;1.43;;
18290;SDS011;9271;48.590;8.866;2023-12-20T14:25:10;3.83;;;1.13;;
18290;SDS011;9271;48.590;8.866;2023-12-20T14:27:38;2.33;;;0.97;;
18290;SDS011;9271;48.590;8.866;2023-12-20T14:30:05;1.30;;;0.90;;
18290;SDS011;9271;48.590;8.866;2023-12-20T14:32:34;1.47;;;0.90;;
18290;SDS011;9271;48.590;8.866;2023-12-20T14:35:05;2.70;;;1.30;;
18290;SDS011;9271;48.590;8.866;2023-12-20T14:37:33;1.47;;;1.10;;
18290;SDS011;9271;48.590;8.866;2023-12-20T14:40:00;3.90;;;1.50;;
18290;SDS011;9271;48.590;8.866;2023-12-20T14:42:27;3.10;;;1.60;;
18290;SDS011;9271;48.590;8.866;2023-12-20T14:44:54;3.43;;;1.67;;
18290;SDS011;9271;48.590;8.866;2023-12-20T14:47:21;2.70;;;1.10;;
18290;SDS011;9271;48.590;8.866;2023-12-20T14:49:50;1.83;;;0.83;;
18290;SDS011;9271;48.590;8.866;2023-12-20T14:52:18;1.50;;;1.10;;
18290;SDS011;9271;48.590;8.866;2023-12-20T14:54:45;1.17;;;0.70;;
18290;SDS011;9271;48.590;8.866;2023-12-20T14:57:12;4.40;;;1.30;;
18290;SDS011;9271;48.590;8.866;2023-12-20T14:59:39;4.40;;;1.50;;
18290;SDS011;9271;48.590;8.866;2023-12-20T15:02:06;4.00;;;1.50;;